sensor_id;sensor_type;location;lat;lon;timestamp;P1;durP1;ratioP1;P2;durP2;ratioP2
13834;SDS011;6988;52.614;13.500;2023-08-08T00:01:10;5.63;;;2.20;;
13834;SDS011;6988;52.614;13.500;2023-08-08T00:06:02;6.43;;;2.13;;
13834;SDS011;6988;52.614;13.500;2023-08-08T00:10:54;4.70;;;1.90;;
13834;SDS011;6988;52.614;13.500;2023-08-08T00:15:46;4.70;;;1.80;;
13834;SDS011;6988;52.614;13.500;2023-08-08T00:20:39;4.97;;;1.90;;
13834;SDS011;6988;52.614;13.500;2023-08-08T00:25:31;6.23;;;1.77;;
13834;SDS011;6988;52.614;13.500;2023-08-08T00:30:23;3.87;;;1.80;;
13834;SDS011;6988;52.614;13.500;2023-08-08T00:35:15;4.10;;;2.27;;
13834;SDS011;6988;52.614;13.500;2023-08-08T00:40:11;4.53;;;2.07;;
13834;SDS011;6988;52.614;13.500;2023-08-08T00:45:03;2.70;;;1.60;;
13834;SDS011;6988;52.614;13.500;2023-08-08T00:49:55;3.20;;;1.60;;
13834;SDS011;6988;52.614;13.500;2023-08-08T00:54:48;3.40;;;1.80;;
13834;SDS011;6988;52.614;13.500;2023-08-08T00:59:41;4.20;;;1.70;;
13834;SDS011;6988;52.614;13.500;2023-08-08T01:04:33;5.67;;;1.80;;
13834;SDS011;6988;52.614;13.500;2023-08-08T01:09:27;4.87;;;2.00;;
13834;SDS011;6988;52.614;13.500;2023-08-08T01:14:27;6.83;;;1.93;;
13834;SDS011;6988;52.614;13.500;2023-08-08T01:19:23;5.03;;;1.63;;
13834;SDS011;6988;52.614;13.500;2023-08-08T01:24:21;4.70;;;1.63;;
13834;SDS011;6988;52.614;13.500;2023-08-08T01:29:18;2.93;;;1.53;;
13834;SDS011;6988;52.614;13.500;2023-08-08T01:34:10;3.30;;;1.70;;
13834;SDS011;6988;52.614;13.500;2023-08-08T01:39:03;4.50;;;1.70;;
13834;SDS011;6988;52.614;13.500;2023-08-08T01:44:06;4.00;;;2.00;;
13834;SDS011;6988;52.614;13.500;2023-08-08T01:48:59;4.30;;;1.60;;
13834;SDS011;6988;52.614;13.500;2023-08-08T01:53:50;3.00;;;1.37;;
13834;SDS011;6988;52.614;13.500;2023-08-08T01:58:42;3.17;;;1.40;;
13834;SDS011;6988;52.614;13.500;2023-08-08T02:03:36;3.00;;;1.50;;
13834;SDS011;6988;52.614;13.500;2023-08-08T02:08:28;3.87;;;1.70;;
13834;SDS011;6988;52.614;13.500;2023-08-08T02:13:20;3.57;;;1.37;;
13834;SDS011;6988;52.614;13.500;2023-08-08T02:18:12;4.87;;;1.50;;
13834;SDS011;6988;52.614;13.500;2023-08-08T02:23:05;6.17;;;1.40;;
13834;SDS011;6988;52.614;13.500;2023-08-08T02:27:57;3.57;;;1.40;;
13834;SDS011;6988;52.614;13.500;2023-08-08T02:32:49;4.27;;;1.67;;
13834;SDS011;6988;52.614;13.500;2023-08-08T02:37:41;3.13;;;1.40;;
13834;SDS011;6988;52.614;13.500;2023-08-08T02:42:34;3.67;;;1.70;;
13834;SDS011;6988;52.614;13.500;2023-08-08T02:47:26;4.03;;;1.90;;
13834;SDS011;6988;52.614;13.500;2023-08-08T02:52:19;2.57;;;1.40;;
13834;SDS011;6988;52.614;13.500;2023-08-08T02:57:10;3.20;;;1.47;;
13834;SDS011;6988;52.614;13.500;2023-08-08T03:02:05;3.10;;;1.50;;
13834;SDS011;6988;52.614;13.500;2023-08-08T03:06:59;4.13;;;1.73;;
13834;SDS011;6988;52.614;13.500;2023-08-08T03:11:54;2.60;;;1.70;;
13834;SDS011;6988;52.614;13.500;2023-08-08T03:16:46;3.53;;;1.60;;
13834;SDS011;6988;52.614;13.500;2023-08-08T03:21:40;3.60;;;1.67;;
13834;SDS011;6988;52.614;13.500;2023-08-08T03:26:32;5.53;;;2.00;;
13834;SDS011;6988;52.614;13.500;2023-08-08T03:31:24;2.83;;;1.60;;
13834;SDS011;6988;52.614;13.500;2023-08-08T03:36:18;3.63;;;2.13;;
13834;SDS011;6988;52.614;13.500;2023-08-08T03:41:12;5.30;;;1.80;;
13834;SDS011;6988;52.614;13.500;2023-08-08T03:46:04;6.33;;;2.10;;
13834;SDS011;6988;52.614;13.500;2023-08-08T03:50:56;4.47;;;2.17;;
13834;SDS011;6988;52.614;13.500;2023-08-08T03:55:48;5.53;;;2.20;;
13834;SDS011;6988;52.614;13.500;2023-08-08T04:00:42;4.50;;;2.03;;
13834;SDS011;6988;52.614;13.500;2023-08-08T04:05:36;5.87;;;2.03;;
13834;SDS011;6988;52.614;13.500;2023-08-08T04:10:27;5.30;;;2.17;;
13834;SDS011;6988;52.614;13.500;2023-08-08T04:15:19;4.17;;;2.10;;
13834;SDS011;6988;52.614;13.500;2023-08-08T04:20:12;3.50;;;2.00;;
13834;SDS011;6988;52.614;13.500;2023-08-08T04:25:05;4.63;;;2.40;;
13834;SDS011;6988;52.614;13.500;2023-08-08T04:29:57;6.73;;;2.60;;
13834;SDS011;6988;52.614;13.500;2023-08-08T04:34:49;4.07;;;2.10;;
13834;SDS011;6988;52.614;13.500;2023-08-08T04:39:42;2.83;;;2.03;;
13834;SDS011;6988;52.614;13.500;2023-08-08T04:44:34;3.97;;;2.07;;
13834;SDS011;6988;52.614;13.500;2023-08-08T04:49:26;4.73;;;2.00;;
13834;SDS011;6988;52.614;13.500;2023-08-08T04:54:18;4.70;;;2.40;;
13834;SDS011;6988;52.614;13.500;2023-08-08T04:59:11;5.87;;;2.10;;
13834;SDS011;6988;52.614;13.500;2023-08-08T05:04:03;4.63;;;2.00;;
13834;SDS011;6988;52.614;13.500;2023-08-08T05:08:55;4.70;;;2.10;;
13834;SDS011;6988;52.614;13.500;2023-08-08T05:13:47;6.70;;;2.30;;
13834;SDS011;6988;52.614;13.500;2023-08-08T05:18:41;5.40;;;1.90;;
13834;SDS011;6988;52.614;13.500;2023-08-08T05:23:34;3.67;;;1.90;;
13834;SDS011;6988;52.614;13.500;2023-08-08T05:28:25;3.40;;;2.20;;
13834;SDS011;6988;52.614;13.500;2023-08-08T05:33:17;5.10;;;2.10;;
13834;SDS011;6988;52.614;13.500;2023-08-08T05:38:11;3.33;;;2.10;;
13834;SDS011;6988;52.614;13.500;2023-08-08T05:43:03;3.40;;;2.10;;
13834;SDS011;6988;52.614;13.500;2023-08-08T05:47:55;5.07;;;2.10;;
13834;SDS011;6988;52.614;13.500;2023-08-08T05:52:47;3.30;;;1.93;;
13834;SDS011;6988;52.614;13.500;2023-08-08T05:57:40;5.10;;;1.90;;
13834;SDS011;6988;52.614;13.500;2023-08-08T06:02:34;3.00;;;2.00;;
13834;SDS011;6988;52.614;13.500;2023-08-08T06:07:26;6.67;;;1.93;;
13834;SDS011;6988;52.614;13.500;2023-08-08T06:12:18;3.87;;;1.93;;
13834;SDS011;6988;52.614;13.500;2023-08-08T06:17:14;2.80;;;1.73;;
13834;SDS011;6988;52.614;13.500;2023-08-08T06:22:06;5.07;;;2.00;;
13834;SDS011;6988;52.614;13.500;2023-08-08T06:26:57;3.53;;;1.70;;
13834;SDS011;6988;52.614;13.500;2023-08-08T06:31:50;3.77;;;2.00;;
13834;SDS011;6988;52.614;13.500;2023-08-08T06:36:44;5.47;;;2.20;;
13834;SDS011;6988;52.614;13.500;2023-08-08T06:41:37;2.40;;;1.80;;
13834;SDS011;6988;52.614;13.500;2023-08-08T06:46:29;7.10;;;2.13;;
13834;SDS011;6988;52.614;13.500;2023-08-08T06:51:21;5.07;;;2.00;;
13834;SDS011;6988;52.614;13.500;2023-08-08T06:56:14;3.13;;;1.97;;
13834;SDS011;6988;52.614;13.500;2023-08-08T07:01:08;4.07;;;2.03;;
13834;SDS011;6988;52.614;13.500;2023-08-08T07:06:00;6.47;;;1.80;;
13834;SDS011;6988;52.614;13.500;2023-08-08T07:10:52;3.90;;;1.77;;
13834;SDS011;6988;52.614;13.500;2023-08-08T07:15:46;3.07;;;1.80;;
13834;SDS011;6988;52.614;13.500;2023-08-08T07:20:40;5.83;;;2.17;;
13834;SDS011;6988;52.614;13.500;2023-08-08T07:25:32;5.30;;;1.90;;
13834;SDS011;6988;52.614;13.500;2023-08-08T07:30:25;3.80;;;2.13;;
13834;SDS011;6988;52.614;13.500;2023-08-08T07:35:18;6.13;;;1.80;;
13834;SDS011;6988;52.614;13.500;2023-08-08T07:40:13;5.17;;;1.80;;
13834;SDS011;6988;52.614;13.500;2023-08-08T07:45:07;3.30;;;1.83;;
13834;SDS011;6988;52.614;13.500;2023-08-08T07:50:00;3.40;;;1.70;;
13834;SDS011;6988;52.614;13.500;2023-08-08T07:54:53;5.37;;;2.10;;
13834;SDS011;6988;52.614;13.500;2023-08-08T07:59:45;2.83;;;1.70;;
13834;SDS011;6988;52.614;13.500;2023-08-08T08:04:37;4.20;;;1.50;;
13834;SDS011;6988;52.614;13.500;2023-08-08T08:09:29;5.77;;;2.00;;
13834;SDS011;6988;52.614;13.500;2023-08-08T08:14:22;2.90;;;1.70;;
13834;SDS011;6988;52.614;13.500;2023-08-08T08:19:14;2.50;;;1.50;;
13834;SDS011;6988;52.614;13.500;2023-08-08T08:24:06;4.47;;;2.00;;
13834;SDS011;6988;52.614;13.500;2023-08-08T08:28:58;3.13;;;1.60;;
13834;SDS011;6988;52.614;13.500;2023-08-08T08:33:51;2.80;;;1.70;;
13834;SDS011;6988;52.614;13.500;2023-08-08T08:38:45;4.17;;;2.00;;
13834;SDS011;6988;52.614;13.500;2023-08-08T08:43:37;3.40;;;1.63;;
13834;SDS011;6988;52.614;13.500;2023-08-08T08:48:29;4.57;;;1.63;;
13834;SDS011;6988;52.614;13.500;2023-08-08T08:53:23;4.37;;;1.67;;
13834;SDS011;6988;52.614;13.500;2023-08-08T08:58:17;3.23;;;1.73;;
13834;SDS011;6988;52.614;13.500;2023-08-08T09:03:10;4.90;;;1.60;;
13834;SDS011;6988;52.614;13.500;2023-08-08T09:08:02;3.90;;;1.67;;
13834;SDS011;6988;52.614;13.500;2023-08-08T09:12:56;2.97;;;1.43;;
13834;SDS011;6988;52.614;13.500;2023-08-08T09:17:48;2.60;;;1.73;;
13834;SDS011;6988;52.614;13.500;2023-08-08T09:22:41;4.93;;;2.00;;
13834;SDS011;6988;52.614;13.500;2023-08-08T09:27:33;6.27;;;1.50;;
13834;SDS011;6988;52.614;13.500;2023-08-08T09:32:29;4.20;;;1.70;;
13834;SDS011;6988;52.614;13.500;2023-08-08T09:37:21;4.17;;;1.63;;
13834;SDS011;6988;52.614;13.500;2023-08-08T09:42:13;5.10;;;1.90;;
13834;SDS011;6988;52.614;13.500;2023-08-08T09:47:05;5.77;;;1.70;;
13834;SDS011;6988;52.614;13.500;2023-08-08T09:51:58;3.37;;;1.50;;
13834;SDS011;6988;52.614;13.500;2023-08-08T09:56:51;5.60;;;1.83;;
13834;SDS011;6988;52.614;13.500;2023-08-08T10:01:43;4.17;;;1.73;;
13834;SDS011;6988;52.614;13.500;2023-08-08T10:06:37;4.03;;;1.57;;
13834;SDS011;6988;52.614;13.500;2023-08-08T10:11:31;4.73;;;1.97;;
13834;SDS011;6988;52.614;13.500;2023-08-08T10:16:24;3.47;;;1.90;;
13834;SDS011;6988;52.614;13.500;2023-08-08T10:21:16;5.57;;;2.10;;
13834;SDS011;6988;52.614;13.500;2023-08-08T10:26:17;4.07;;;1.97;;
13834;SDS011;6988;52.614;13.500;2023-08-08T10:31:16;3.30;;;2.07;;
13834;SDS011;6988;52.614;13.500;2023-08-08T10:36:12;6.90;;;2.33;;
13834;SDS011;6988;52.614;13.500;2023-08-08T10:41:04;6.43;;;2.07;;
13834;SDS011;6988;52.614;13.500;2023-08-08T10:46:01;3.57;;;1.80;;
13834;SDS011;6988;52.614;13.500;2023-08-08T10:50:57;3.23;;;2.00;;
13834;SDS011;6988;52.614;13.500;2023-08-08T10:55:57;3.27;;;1.70;;
13834;SDS011;6988;52.614;13.500;2023-08-08T11:00:50;4.37;;;2.00;;
13834;SDS011;6988;52.614;13.500;2023-08-08T11:05:48;2.23;;;1.60;;
13834;SDS011;6988;52.614;13.500;2023-08-08T11:11:41;4.50;;;1.70;;
13834;SDS011;6988;52.614;13.500;2023-08-08T11:16:34;2.10;;;1.53;;
13834;SDS011;6988;52.614;13.500;2023-08-08T11:21:26;3.30;;;1.63;;
13834;SDS011;6988;52.614;13.500;2023-08-08T11:26:18;3.57;;;1.70;;
13834;SDS011;6988;52.614;13.500;2023-08-08T11:31:11;3.93;;;1.50;;
13834;SDS011;6988;52.614;13.500;2023-08-08T11:36:04;5.53;;;1.70;;
13834;SDS011;6988;52.614;13.500;2023-08-08T11:40:57;2.03;;;1.20;;
13834;SDS011;6988;52.614;13.500;2023-08-08T11:45:50;2.63;;;1.20;;
13834;SDS011;6988;52.614;13.500;2023-08-08T11:50:48;3.13;;;1.23;;
13834;SDS011;6988;52.614;13.500;2023-08-08T11:55:40;2.07;;;1.10;;
13834;SDS011;6988;52.614;13.500;2023-08-08T12:00:32;1.57;;;1.20;;
13834;SDS011;6988;52.614;13.500;2023-08-08T12:05:25;2.70;;;1.40;;
13834;SDS011;6988;52.614;13.500;2023-08-08T12:10:19;2.90;;;1.10;;
13834;SDS011;6988;52.614;13.500;2023-08-08T12:15:13;2.87;;;1.43;;
13834;SDS011;6988;52.614;13.500;2023-08-08T12:31:08;3.83;;;1.73;;
13834;SDS011;6988;52.614;13.500;2023-08-08T12:36:00;2.47;;;1.70;;
13834;SDS011;6988;52.614;13.500;2023-08-08T12:40:52;3.10;;;1.42;;
13834;SDS011;6988;52.614;13.500;2023-08-08T12:45:46;3.67;;;1.60;;
13834;SDS011;6988;52.614;13.500;2023-08-08T12:50:38;2.40;;;1.30;;
13834;SDS011;6988;52.614;13.500;2023-08-08T12:55:30;3.58;;;1.90;;
13834;SDS011;6988;52.614;13.500;2023-08-08T13:00:22;2.47;;;1.80;;
13834;SDS011;6988;52.614;13.500;2023-08-08T13:05:15;4.63;;;1.87;;
13834;SDS011;6988;52.614;13.500;2023-08-08T13:10:08;2.35;;;1.65;;
13834;SDS011;6988;52.614;13.500;2023-08-08T13:15:00;4.87;;;1.60;;
13834;SDS011;6988;52.614;13.500;2023-08-08T13:19:52;3.00;;;1.43;;
13834;SDS011;6988;52.614;13.500;2023-08-08T13:24:45;4.23;;;1.73;;
13834;SDS011;6988;52.614;13.500;2023-08-08T13:29:37;2.63;;;1.50;;
13834;SDS011;6988;52.614;13.500;2023-08-08T13:34:28;3.57;;;1.70;;
13834;SDS011;6988;52.614;13.500;2023-08-08T13:39:20;3.65;;;1.88;;
13834;SDS011;6988;52.614;13.500;2023-08-08T13:44:13;4.80;;;1.73;;
13834;SDS011;6988;52.614;13.500;2023-08-08T13:49:05;3.38;;;1.60;;
13834;SDS011;6988;52.614;13.500;2023-08-08T13:53:58;3.22;;;1.80;;
13834;SDS011;6988;52.614;13.500;2023-08-08T13:58:49;4.57;;;2.00;;
13834;SDS011;6988;52.614;13.500;2023-08-08T14:03:43;0.80;;;0.70;;
13834;SDS011;6988;52.614;13.500;2023-08-08T14:08:35;1.17;;;0.90;;
13834;SDS011;6988;52.614;13.500;2023-08-08T14:13:27;1.70;;;1.10;;
13834;SDS011;6988;52.614;13.500;2023-08-08T14:18:19;1.50;;;1.00;;
13834;SDS011;6988;52.614;13.500;2023-08-08T14:23:12;1.67;;;1.00;;
13834;SDS011;6988;52.614;13.500;2023-08-08T14:28:04;2.03;;;1.07;;
13834;SDS011;6988;52.614;13.500;2023-08-08T14:32:56;1.60;;;1.00;;
13834;SDS011;6988;52.614;13.500;2023-08-08T14:37:48;1.27;;;0.97;;
13834;SDS011;6988;52.614;13.500;2023-08-08T14:42:41;2.03;;;0.83;;
13834;SDS011;6988;52.614;13.500;2023-08-08T14:47:33;2.63;;;1.60;;
13834;SDS011;6988;52.614;13.500;2023-08-08T14:52:25;1.63;;;1.10;;
13834;SDS011;6988;52.614;13.500;2023-08-08T14:57:17;2.13;;;1.20;;
13834;SDS011;6988;52.614;13.500;2023-08-08T15:02:10;2.27;;;1.13;;
13834;SDS011;6988;52.614;13.500;2023-08-08T15:07:05;1.97;;;1.03;;
13834;SDS011;6988;52.614;13.500;2023-08-08T15:11:56;2.87;;;1.10;;
13834;SDS011;6988;52.614;13.500;2023-08-08T15:16:49;2.53;;;0.80;;
13834;SDS011;6988;52.614;13.500;2023-08-08T15:21:44;1.77;;;0.93;;
13834;SDS011;6988;52.614;13.500;2023-08-08T15:26:36;1.53;;;0.80;;
13834;SDS011;6988;52.614;13.500;2023-08-08T15:31:29;2.00;;;0.77;;
13834;SDS011;6988;52.614;13.500;2023-08-08T15:36:22;2.33;;;1.13;;
13834;SDS011;6988;52.614;13.500;2023-08-08T15:41:15;2.40;;;1.00;;
13834;SDS011;6988;52.614;13.500;2023-08-08T15:46:07;1.17;;;0.70;;
13834;SDS011;6988;52.614;13.500;2023-08-08T15:50:59;1.47;;;0.80;;
13834;SDS011;6988;52.614;13.500;2023-08-08T15:55:51;1.27;;;0.70;;
13834;SDS011;6988;52.614;13.500;2023-08-08T16:00:44;1.07;;;0.80;;
13834;SDS011;6988;52.614;13.500;2023-08-08T16:05:36;3.03;;;0.97;;
13834;SDS011;6988;52.614;13.500;2023-08-08T16:10:28;0.80;;;0.60;;
13834;SDS011;6988;52.614;13.500;2023-08-08T16:15:20;1.63;;;0.70;;
13834;SDS011;6988;52.614;13.500;2023-08-08T16:20:16;2.00;;;1.00;;
13834;SDS011;6988;52.614;13.500;2023-08-08T16:25:09;2.27;;;1.00;;
13834;SDS011;6988;52.614;13.500;2023-08-08T16:30:01;1.73;;;0.80;;
13834;SDS011;6988;52.614;13.500;2023-08-08T16:34:54;1.80;;;0.97;;
13834;SDS011;6988;52.614;13.500;2023-08-08T16:39:54;1.80;;;1.00;;
13834;SDS011;6988;52.614;13.500;2023-08-08T16:44:52;1.37;;;0.90;;
13834;SDS011;6988;52.614;13.500;2023-08-08T16:49:49;4.93;;;0.80;;
13834;SDS011;6988;52.614;13.500;2023-08-08T17:05:13;1.60;;;0.83;;
13834;SDS011;6988;52.614;13.500;2023-08-08T17:10:06;1.70;;;0.87;;
13834;SDS011;6988;52.614;13.500;2023-08-08T17:14:59;1.10;;;1.00;;
13834;SDS011;6988;52.614;13.500;2023-08-08T17:20:10;2.63;;;1.20;;
13834;SDS011;6988;52.614;13.500;2023-08-08T17:25:03;1.43;;;1.00;;
13834;SDS011;6988;52.614;13.500;2023-08-08T17:29:56;4.37;;;1.27;;
13834;SDS011;6988;52.614;13.500;2023-08-08T17:34:47;2.33;;;1.00;;
13834;SDS011;6988;52.614;13.500;2023-08-08T17:39:41;1.33;;;1.00;;
13834;SDS011;6988;52.614;13.500;2023-08-08T17:44:32;1.53;;;1.10;;
13834;SDS011;6988;52.614;13.500;2023-08-08T17:49:24;2.23;;;1.20;;
13834;SDS011;6988;52.614;13.500;2023-08-08T17:54:16;1.87;;;0.83;;
13834;SDS011;6988;52.614;13.500;2023-08-08T17:59:09;2.27;;;1.00;;
13834;SDS011;6988;52.614;13.500;2023-08-08T18:04:01;4.70;;;1.43;;
13834;SDS011;6988;52.614;13.500;2023-08-08T18:08:54;2.20;;;1.00;;
13834;SDS011;6988;52.614;13.500;2023-08-08T18:13:46;1.67;;;1.17;;
13834;SDS011;6988;52.614;13.500;2023-08-08T18:18:40;2.58;;;1.30;;
13834;SDS011;6988;52.614;13.500;2023-08-08T18:23:32;1.77;;;1.10;;
13834;SDS011;6988;52.614;13.500;2023-08-08T18:28:25;2.97;;;1.30;;
13834;SDS011;6988;52.614;13.500;2023-08-08T18:33:17;3.23;;;1.37;;
13834;SDS011;6988;52.614;13.500;2023-08-08T18:38:10;1.60;;;1.07;;
13834;SDS011;6988;52.614;13.500;2023-08-08T18:43:02;2.30;;;1.30;;
13834;SDS011;6988;52.614;13.500;2023-08-08T18:47:54;1.53;;;1.20;;
13834;SDS011;6988;52.614;13.500;2023-08-08T18:52:46;3.40;;;1.40;;
13834;SDS011;6988;52.614;13.500;2023-08-08T18:57:49;3.67;;;1.70;;
13834;SDS011;6988;52.614;13.500;2023-08-08T19:02:41;4.53;;;1.50;;
13834;SDS011;6988;52.614;13.500;2023-08-08T19:07:33;2.50;;;1.40;;
13834;SDS011;6988;52.614;13.500;2023-08-08T19:12:24;3.53;;;1.40;;
13834;SDS011;6988;52.614;13.500;2023-08-08T19:23:01;4.43;;;1.70;;
13834;SDS011;6988;52.614;13.500;2023-08-08T19:27:53;2.43;;;1.70;;
13834;SDS011;6988;52.614;13.500;2023-08-08T19:32:45;3.27;;;1.83;;
13834;SDS011;6988;52.614;13.500;2023-08-08T19:37:39;3.90;;;1.60;;
13834;SDS011;6988;52.614;13.500;2023-08-08T19:42:30;4.70;;;1.87;;
13834;SDS011;6988;52.614;13.500;2023-08-08T19:47:22;2.57;;;1.70;;
13834;SDS011;6988;52.614;13.500;2023-08-08T19:52:14;4.40;;;1.50;;
13834;SDS011;6988;52.614;13.500;2023-08-08T19:57:08;3.20;;;1.50;;
13834;SDS011;6988;52.614;13.500;2023-08-08T20:01:59;2.77;;;1.53;;
13834;SDS011;6988;52.614;13.500;2023-08-08T20:06:54;2.30;;;1.33;;
13834;SDS011;6988;52.614;13.500;2023-08-08T20:12:30;3.87;;;1.43;;
13834;SDS011;6988;52.614;13.500;2023-08-08T20:17:22;2.23;;;1.80;;
13834;SDS011;6988;52.614;13.500;2023-08-08T20:27:45;3.37;;;1.60;;
13834;SDS011;6988;52.614;13.500;2023-08-08T20:32:37;3.30;;;1.77;;
13834;SDS011;6988;52.614;13.500;2023-08-08T20:42:56;3.57;;;1.30;;
13834;SDS011;6988;52.614;13.500;2023-08-08T20:47:51;3.07;;;1.30;;
13834;SDS011;6988;52.614;13.500;2023-08-08T20:58:01;2.17;;;1.30;;
13834;SDS011;6988;52.614;13.500;2023-08-08T21:03:03;3.40;;;1.47;;
13834;SDS011;6988;52.614;13.500;2023-08-08T21:07:55;5.97;;;2.37;;
13834;SDS011;6988;52.614;13.500;2023-08-08T21:12:47;5.10;;;1.90;;
13834;SDS011;6988;52.614;13.500;2023-08-08T21:17:41;4.17;;;1.30;;
13834;SDS011;6988;52.614;13.500;2023-08-08T21:22:35;2.50;;;1.33;;
13834;SDS011;6988;52.614;13.500;2023-08-08T21:27:27;2.23;;;1.13;;
13834;SDS011;6988;52.614;13.500;2023-08-08T21:32:19;1.97;;;1.03;;
13834;SDS011;6988;52.614;13.500;2023-08-08T21:37:12;4.53;;;1.23;;
13834;SDS011;6988;52.614;13.500;2023-08-08T21:42:04;2.07;;;1.07;;
13834;SDS011;6988;52.614;13.500;2023-08-08T22:04:16;1.53;;;1.37;;
13834;SDS011;6988;52.614;13.500;2023-08-08T22:09:08;2.37;;;1.20;;
13834;SDS011;6988;52.614;13.500;2023-08-08T22:13:59;1.87;;;1.27;;
13834;SDS011;6988;52.614;13.500;2023-08-08T22:18:51;2.83;;;1.37;;
13834;SDS011;6988;52.614;13.500;2023-08-08T22:23:45;2.37;;;1.20;;
13834;SDS011;6988;52.614;13.500;2023-08-08T22:28:37;2.20;;;1.30;;
13834;SDS011;6988;52.614;13.500;2023-08-08T22:33:29;3.37;;;1.20;;
13834;SDS011;6988;52.614;13.500;2023-08-08T22:38:21;4.70;;;1.60;;
13834;SDS011;6988;52.614;13.500;2023-08-08T22:43:14;4.67;;;1.40;;
13834;SDS011;6988;52.614;13.500;2023-08-08T22:48:06;3.30;;;1.20;;
13834;SDS011;6988;52.614;13.500;2023-08-08T22:52:58;7.30;;;1.67;;
13834;SDS011;6988;52.614;13.500;2023-08-08T22:57:49;5.43;;;1.50;;
13834;SDS011;6988;52.614;13.500;2023-08-08T23:02:43;6.00;;;1.90;;
13834;SDS011;6988;52.614;13.500;2023-08-08T23:07:34;3.57;;;1.40;;
13834;SDS011;6988;52.614;13.500;2023-08-08T23:12:26;2.70;;;1.30;;
13834;SDS011;6988;52.614;13.500;2023-08-08T23:17:18;2.27;;;1.20;;
13834;SDS011;6988;52.614;13.500;2023-08-08T23:22:11;3.23;;;1.20;;
13834;SDS011;6988;52.614;13.500;2023-08-08T23:27:03;2.50;;;1.40;;
13834;SDS011;6988;52.614;13.500;2023-08-08T23:31:56;2.80;;;1.33;;
13834;SDS011;6988;52.614;13.500;2023-08-08T23:36:48;2.07;;;1.40;;
13834;SDS011;6988;52.614;13.500;2023-08-08T23:41:41;2.93;;;1.30;;
13834;SDS011;6988;52.614;13.500;2023-08-08T23:46:33;2.80;;;1.40;;
13834;SDS011;6988;52.614;13.500;2023-08-08T23:51:25;3.40;;;1.67;;
13834;SDS011;6988;52.614;13.500;2023-08-08T23:56:17;3.20;;;1.77;;
